Council, ID

11:50 PM MST on February 13, 2016 (GMT -0700)
ITD | | Change Station
CLOSE
Current Station
Personal Weather Station
Location: Council, ID
Elevation: 3466 ft
Nearby Weather Stations

Elev 3466 ft 44.83 °N, 116.40 °W | Updated 35 minutes ago

Light Snow
Light Snow Mist
35.0 °F
Feels Like 35.0 °F
N
0.0
Wind Variable Wind from SSE
Gusts 1.0 mph

Today
High -- | Low -- °F
--% Chance of Precip.
Yesterday
High -- | Low -- °F
Precip. -- in
Pressure 30.16 in
Visibility 1.2 miles
Clouds Scattered Clouds 600 ft
Overcast 1200 ft
Dew Point 34.0 °F
Humidity 97%
Rainfall in
Snow Depth Not available.
7:49 AM 6:10 PM
Waxing Crescent, 38% visible
SPECI KMYL 140648Z AUTO 14005KT 1 1/4SM -SN BR SCT006 OVC012 M01/M02 A3016 RMK AO2 SNB00 P0003
Pressure 30.16 in
Visibility 1.2 miles
Clouds Scattered Clouds 600 ft
Overcast 1200 ft
Dew Point 34.0 °F
Humidity 97%
Rainfall in
Snow Depth Not available.
7:49 AM 6:10 PM
Waxing Crescent, 38% visible
SPECI KMYL 140648Z AUTO 14005KT 1 1/4SM -SN BR SCT006 OVC012 M01/M02 A3016 RMK AO2 SNB00 P0003

10-Day Weather Forecast

Almanac

Astronomy

Feb. 13, 2016 Rise Set
Actual Time
Civil Twilight
Nautical Twilight
Astronomical Twilight
Moon
Length of Visible Light
Length of Day
Tomorrow will be .
, % of the Moon is Illuminated

Today's Extremes

State Highs State Lows

Community

WunderPhotos

Upload Photos

1,892,757 photos uploaded!

WunderBlog® & News

Nearby

Air Quality

  Air Quality AQ Index Pollutant
Not available.

Snow Depth

Station Depth Elevation

Earthquake Activity

City Distance Mag. Time & Date
Minimum magnitude displayed is 2.5.

Coastal Water Temperatures

Place Temperature

Stations

Nearby Weather Stations

Station Location Temp. Windchill Dew Point Humidity Wind Precip. Elev Updated Type
                   

Watches & Warnings

There are currently no watches in effect.